createdAt,value
2022-11-22T00:03:19.742Z,2.20
2022-11-22T00:09:13.331Z,2.20
2022-11-22T00:15:09.777Z,2.10
2022-11-22T00:21:07.212Z,2.20
2022-11-22T00:27:00.831Z,2.10
2022-11-22T00:32:55.661Z,2.00
2022-11-22T00:38:48.681Z,2.10
2022-11-22T00:44:42.089Z,2.20
2022-11-22T00:50:36.901Z,2.10
2022-11-22T00:56:32.343Z,2.00
2022-11-22T01:02:25.336Z,2.00
2022-11-22T01:08:19.788Z,1.80
2022-11-22T01:14:13.279Z,1.90
2022-11-22T01:20:07.857Z,2.00
2022-11-22T01:26:02.697Z,2.00
2022-11-22T01:31:56.108Z,2.10
2022-11-22T01:37:49.528Z,2.00
2022-11-22T01:43:44.301Z,2.00
2022-11-22T01:49:42.964Z,1.90
2022-11-22T01:55:37.387Z,1.90
2022-11-22T02:01:33.310Z,2.00
2022-11-22T02:07:32.313Z,1.80
2022-11-22T02:13:26.507Z,1.80
2022-11-22T02:19:28.865Z,1.90
2022-11-22T02:25:31.765Z,1.90
2022-11-22T02:31:41.030Z,2.00
2022-11-22T02:37:35.014Z,1.80
2022-11-22T02:43:31.692Z,1.80
2022-11-22T02:49:27.213Z,1.80
2022-11-22T02:55:20.663Z,1.80
2022-11-22T03:01:14.907Z,1.80
2022-11-22T03:07:09.812Z,1.80
2022-11-22T03:13:03.304Z,2.00
2022-11-22T03:18:56.782Z,1.90
2022-11-22T03:24:51.529Z,1.90
2022-11-22T03:30:44.971Z,1.90
2022-11-22T03:36:38.491Z,2.00
2022-11-22T03:42:33.493Z,1.90
2022-11-22T03:48:26.630Z,1.70
2022-11-22T03:54:20.112Z,1.80
2022-11-22T04:00:16.436Z,1.70
2022-11-22T04:06:09.864Z,1.90
2022-11-22T04:12:03.273Z,1.90
2022-11-22T04:17:58.050Z,1.80
2022-11-22T04:24:11.482Z,1.70
2022-11-22T04:30:05.321Z,1.90
2022-11-22T04:36:00.160Z,1.80
2022-11-22T04:42:14.146Z,1.80
2022-11-22T04:48:07.180Z,1.70
2022-11-22T04:54:02.054Z,1.90
2022-11-22T04:59:55.501Z,1.80
2022-11-22T05:05:49.736Z,1.70
2022-11-22T05:11:44.513Z,1.90
2022-11-22T05:17:38.547Z,1.90
2022-11-22T05:23:49.515Z,1.90
2022-11-22T05:29:44.282Z,2.00
2022-11-22T05:35:49.137Z,1.90
2022-11-22T05:41:56.331Z,1.90
2022-11-22T05:47:51.244Z,2.00
2022-11-22T05:53:46.352Z,2.10
2022-11-22T05:59:43.900Z,2.00
2022-11-22T06:05:39.026Z,2.10
2022-11-22T06:11:32.543Z,2.20
2022-11-22T06:17:25.587Z,2.10
2022-11-22T06:23:20.398Z,2.10
2022-11-22T06:29:14.178Z,2.20
2022-11-22T06:35:08.397Z,2.20
2022-11-22T06:41:04.437Z,2.20
2022-11-22T06:46:57.904Z,2.20
2022-11-22T06:52:52.626Z,2.10
2022-11-22T06:58:48.363Z,2.10
2022-11-22T07:05:02.189Z,2.20
2022-11-22T07:10:55.350Z,2.10
2022-11-22T07:16:50.164Z,2.20
2022-11-22T07:22:43.181Z,2.20
2022-11-22T07:28:36.714Z,2.10
2022-11-22T07:34:32.635Z,2.20
2022-11-22T07:40:26.135Z,2.20
2022-11-22T07:46:23.469Z,2.20
2022-11-22T07:52:18.308Z,2.30
2022-11-22T07:58:11.845Z,2.30
2022-11-22T08:04:05.349Z,2.20
2022-11-22T08:10:00.215Z,2.20
2022-11-22T08:15:54.895Z,2.20
2022-11-22T08:21:55.379Z,2.20
2022-11-22T08:27:53.055Z,2.20
2022-11-22T08:33:46.868Z,2.20
2022-11-22T08:39:40.318Z,2.20
2022-11-22T08:45:35.584Z,2.10
2022-11-22T08:51:28.652Z,2.20
2022-11-22T08:57:22.077Z,2.20
2022-11-22T09:03:16.928Z,2.10
2022-11-22T09:15:25.515Z,2.20
2022-11-22T09:21:20.773Z,2.30
2022-11-22T09:27:14.233Z,2.20
2022-11-22T09:33:07.233Z,2.40
2022-11-22T09:39:02.049Z,2.30
2022-11-22T09:45:29.179Z,2.30
2022-11-22T09:51:29.062Z,2.30
2022-11-22T09:57:28.704Z,2.30
2022-11-22T10:03:29.412Z,2.30
2022-11-22T10:09:33.017Z,2.40
2022-11-22T10:15:33.256Z,2.50
2022-11-22T10:21:27.850Z,2.50
2022-11-22T10:27:20.852Z,2.60
2022-11-22T10:33:20.221Z,2.70
2022-11-22T10:39:27.853Z,2.50
2022-11-22T10:45:31.153Z,2.60
2022-11-22T10:51:32.604Z,2.50
2022-11-22T10:57:34.447Z,2.60
2022-11-22T11:03:31.616Z,2.60
2022-11-22T11:10:09.834Z,2.60
2022-11-22T11:15:55.994Z,2.60
2022-11-22T11:21:56.679Z,2.70
2022-11-22T11:27:53.091Z,2.70
2022-11-22T11:33:47.862Z,2.70
2022-11-22T11:39:47.770Z,2.80
2022-11-22T11:45:42.281Z,2.90
2022-11-22T11:51:40.030Z,2.90
2022-11-22T11:57:36.940Z,2.90
2022-11-22T12:03:31.700Z,3.00
2022-11-22T12:09:34.401Z,3.00
2022-11-22T12:15:35.694Z,3.10
2022-11-22T12:21:36.722Z,3.10
2022-11-22T12:27:30.240Z,3.10
2022-11-22T12:33:28.675Z,3.10
2022-11-22T12:39:28.002Z,3.10
2022-11-22T12:45:28.732Z,3.20
2022-11-22T12:51:28.305Z,3.10
2022-11-22T12:57:30.288Z,3.20
2022-11-22T13:03:31.748Z,3.20
2022-11-22T13:09:29.792Z,3.20
2022-11-22T13:15:29.510Z,3.20
2022-11-22T13:21:31.836Z,3.20
2022-11-22T13:27:31.114Z,3.20
2022-11-22T13:33:28.160Z,3.20
2022-11-22T13:39:26.310Z,3.20
2022-11-22T13:45:24.517Z,3.20
2022-11-22T13:51:56.354Z,3.20
2022-11-22T13:57:49.832Z,3.20
2022-11-22T14:03:43.264Z,3.20
2022-11-22T14:09:41.808Z,3.10
2022-11-22T14:16:11.075Z,3.10
2022-11-22T14:22:21.728Z,3.20
2022-11-22T14:28:37.065Z,3.30
2022-11-22T14:34:32.304Z,3.20
2022-11-22T14:40:35.316Z,3.30
2022-11-22T14:46:52.859Z,3.30
2022-11-22T14:52:49.478Z,3.30
2022-11-22T14:58:50.309Z,3.30
2022-11-22T15:09:18.105Z,3.30
2022-11-22T15:11:34.638Z,3.30
2022-11-22T16:01:47.346Z,3.20
2022-11-22T16:07:43.718Z,3.10
2022-11-22T16:13:38.114Z,3.10
2022-11-22T16:19:32.863Z,3.10
2022-11-22T16:25:33.025Z,3.10
2022-11-22T16:31:28.526Z,3.10
2022-11-22T16:37:31.837Z,3.20
2022-11-22T16:43:36.534Z,3.10
2022-11-22T16:49:33.059Z,3.10
2022-11-22T16:55:27.870Z,3.10
2022-11-22T17:01:24.404Z,3.20
2022-11-22T17:07:18.074Z,3.00
2022-11-22T17:13:18.186Z,3.00
2022-11-22T17:19:37.556Z,3.10
2022-11-22T17:25:26.301Z,3.10
2022-11-22T17:31:22.473Z,3.10
2022-11-22T17:37:16.144Z,3.00
2022-11-22T17:43:10.833Z,3.00
2022-11-22T17:49:06.928Z,3.00
2022-11-22T17:55:05.209Z,3.00
2022-11-22T18:01:06.176Z,3.00
2022-11-22T18:07:00.956Z,3.00
2022-11-22T18:13:19.613Z,3.00
2022-11-22T18:19:20.539Z,2.90
2022-11-22T18:25:26.465Z,3.00
2022-11-22T18:31:32.875Z,3.00
2022-11-22T18:37:44.393Z,2.90
2022-11-22T18:43:39.291Z,3.00
2022-11-22T18:49:33.602Z,3.10
2022-11-22T18:55:27.377Z,3.10
2022-11-22T19:01:24.884Z,3.10
2022-11-22T19:07:18.489Z,3.00
2022-11-22T19:13:12.003Z,2.90
2022-11-22T19:19:08.327Z,3.00
2022-11-22T19:25:01.761Z,3.00
2022-11-22T19:30:55.216Z,3.00
2022-11-22T19:36:50.007Z,3.10
2022-11-22T19:42:42.999Z,3.00
2022-11-22T19:48:36.772Z,2.90
2022-11-22T19:54:31.691Z,3.00
2022-11-22T20:00:25.247Z,3.00
2022-11-22T20:06:18.793Z,3.10
2022-11-22T20:12:13.614Z,3.10
2022-11-22T20:18:07.330Z,3.10
2022-11-22T20:24:01.428Z,3.10
2022-11-22T20:29:56.407Z,3.10
2022-11-22T20:35:49.917Z,3.00
2022-11-22T20:41:43.383Z,3.00
2022-11-22T20:47:38.203Z,3.00
2022-11-22T20:53:31.279Z,3.10
2022-11-22T20:59:24.976Z,3.10
2022-11-22T21:05:19.840Z,2.90
2022-11-22T21:11:15.337Z,3.00
2022-11-22T21:17:39.237Z,3.00
2022-11-22T21:23:27.548Z,3.10
2022-11-22T21:29:21.196Z,3.10
2022-11-22T21:35:14.853Z,3.20
2022-11-22T21:47:27.789Z,3.00
2022-11-22T21:53:21.643Z,3.10
2022-11-22T21:59:16.449Z,3.00
2022-11-22T22:05:10.332Z,3.10
2022-11-22T22:11:05.589Z,3.00
2022-11-22T22:17:00.434Z,3.10
2022-11-22T22:22:53.838Z,3.30
2022-11-22T22:28:47.899Z,3.30
2022-11-22T22:34:42.665Z,3.20
2022-11-22T22:40:36.145Z,3.10
2022-11-22T22:46:29.582Z,3.10
2022-11-22T22:52:24.061Z,3.20
2022-11-22T22:58:21.768Z,3.30
2022-11-22T23:04:15.510Z,3.40
2022-11-22T23:10:11.297Z,3.40
2022-11-22T23:16:05.136Z,3.40
2022-11-22T23:21:58.654Z,3.40
2022-11-22T23:27:55.575Z,3.40
2022-11-22T23:33:49.056Z,3.30
2022-11-22T23:39:42.512Z,3.40
2022-11-22T23:45:36.968Z,3.40
2022-11-22T23:51:31.740Z,3.40
2022-11-22T23:57:25.248Z,3.40
